Overview Statistics Trail Chart Weather Telemetry Raw packets
 

This is the latest recevied weather packets stored in our database for station/object LRTR. If no packets are shown the sender has not sent any weather packets the latest 10 day(s).

<< 17 18 19 20 21 22 23 >>
Time Temp. Humidity Pressure Rain* Wind** Luminosity Snow
1777327385 6.11° C 71% 1019 hPa - - - -
1777326485 5° C 81% 1019 hPa - - - -
1777325585 5° C 81% 1019 hPa - - - -
1777324685 6.11° C 76% 1019 hPa - - - -
1777323786 6.11° C 76% 1019 hPa - - - -
1777322885 6.11° C 81% 1019 hPa - - - -
1777321985 6.11° C 81% 1019 hPa - - - -
1777321082 6.11° C 87% 1019 hPa - - - -
1777320185 6.11° C 87% 1019 hPa - - - -
1777319285 7.22° C 87% 1019 hPa - - - -
1777318412 7.22° C 87% 1019 hPa - - - -
1777317485 7.78° C 82% 1019 hPa - - - -
1777316585 7.78° C 82% 1019 hPa - - - -
1777315685 10° C 76% 1019 hPa - - - -
1777314785 10° C 76% 1019 hPa - - - -
1777313885 12.22° C 63% 1019 hPa - - - -
1777312985 12.22° C 63% 1019 hPa - - - -
1777312085 16.11° C 39% 1019 hPa - - - -
1777311185 16.11° C 39% 1019 hPa - - - -
1777310285 17.22° C 37% 1019 hPa - - - -
1777309385 17.22° C 37% 1019 hPa - - - -
1777308485 18.89° C 30% 1019 hPa - - - -
1777307585 18.89° C 30% 1019 hPa - - - -
1777306708 18.89° C 28% 1019 hPa - - - -
1777305784 18.89° C 28% 1019 hPa - - - -

* Rain since midnight (hover to see other rain measurements)
** Current wind speed in m/s (hover to see current wind gust speed)